sensor_id;sensor_type;location;lat;lon;timestamp;pressure;altitude;pressure_sealevel;temperature;humidity
6942;BME280;3510;43.200;27.920;2023-01-15T00:01:49;101809.31;;;13.32;44.97
6942;BME280;3510;43.200;27.920;2023-01-15T00:04:16;101799.28;;;13.43;44.02
6942;BME280;3510;43.200;27.920;2023-01-15T00:06:43;101800.97;;;13.34;44.32
6942;BME280;3510;43.200;27.920;2023-01-15T00:09:12;101806.59;;;13.12;44.76
6942;BME280;3510;43.200;27.920;2023-01-15T00:11:39;101808.25;;;13.39;44.59
6942;BME280;3510;43.200;27.920;2023-01-15T00:14:06;101792.91;;;13.38;44.63
6942;BME280;3510;43.200;27.920;2023-01-15T00:16:32;101809.25;;;13.89;43.28
6942;BME280;3510;43.200;27.920;2023-01-15T00:19:01;101798.75;;;14.24;42.78
6942;BME280;3510;43.200;27.920;2023-01-15T00:21:28;101795.97;;;13.92;43.25
6942;BME280;3510;43.200;27.920;2023-01-15T00:23:55;101798.56;;;14.02;42.92
6942;BME280;3510;43.200;27.920;2023-01-15T00:26:39;101790.97;;;14.12;42.94
6942;BME280;3510;43.200;27.920;2023-01-15T00:29:24;101792.78;;;13.55;43.94
6942;BME280;3510;43.200;27.920;2023-01-15T00:31:51;101795.41;;;13.19;44.86
6942;BME280;3510;43.200;27.920;2023-01-15T00:34:20;101793.66;;;12.90;44.89
6942;BME280;3510;43.200;27.920;2023-01-15T00:36:47;101800.56;;;12.82;45.32
6942;BME280;3510;43.200;27.920;2023-01-15T00:39:14;101793.22;;;12.67;45.73
6942;BME280;3510;43.200;27.920;2023-01-15T00:41:40;101801.41;;;12.64;45.64
6942;BME280;3510;43.200;27.920;2023-01-15T00:44:07;101793.47;;;12.51;46.16
6942;BME280;3510;43.200;27.920;2023-01-15T00:46:34;101797.44;;;12.21;47.09
6942;BME280;3510;43.200;27.920;2023-01-15T00:49:01;101798.53;;;12.51;46.39
6942;BME280;3510;43.200;27.920;2023-01-15T00:51:30;101788.88;;;12.74;45.68
6942;BME280;3510;43.200;27.920;2023-01-15T00:53:57;101792.78;;;12.34;46.32
6942;BME280;3510;43.200;27.920;2023-01-15T00:56:23;101793.50;;;11.97;47.47
6942;BME280;3510;43.200;27.920;2023-01-15T00:58:50;101793.66;;;11.90;47.80
6942;BME280;3510;43.200;27.920;2023-01-15T01:01:17;101796.06;;;11.89;48.42
6942;BME280;3510;43.200;27.920;2023-01-15T01:03:44;101792.47;;;11.95;47.73
6942;BME280;3510;43.200;27.920;2023-01-15T01:06:13;101793.66;;;11.99;47.76
6942;BME280;3510;43.200;27.920;2023-01-15T01:08:42;101784.91;;;12.40;46.66
6942;BME280;3510;43.200;27.920;2023-01-15T01:11:10;101785.59;;;12.20;47.03
6942;BME280;3510;43.200;27.920;2023-01-15T01:13:38;101784.91;;;11.95;47.90
6942;BME280;3510;43.200;27.920;2023-01-15T01:16:15;101781.38;;;12.29;46.98
6942;BME280;3510;43.200;27.920;2023-01-15T01:18:46;101781.97;;;12.35;46.88
6942;BME280;3510;43.200;27.920;2023-01-15T01:21:13;101781.59;;;12.50;46.52
6942;BME280;3510;43.200;27.920;2023-01-15T01:23:42;101775.16;;;12.81;45.86
6942;BME280;3510;43.200;27.920;2023-01-15T01:26:09;101776.81;;;12.53;46.26
6942;BME280;3510;43.200;27.920;2023-01-15T01:28:36;101774.56;;;12.83;45.77
6942;BME280;3510;43.200;27.920;2023-01-15T01:31:04;101777.03;;;13.11;45.18
6942;BME280;3510;43.200;27.920;2023-01-15T01:33:30;101789.19;;;13.15;45.59
6942;BME280;3510;43.200;27.920;2023-01-15T01:35:57;101786.13;;;12.63;46.04
6942;BME280;3510;43.200;27.920;2023-01-15T01:38:24;101787.28;;;12.39;46.81
6942;BME280;3510;43.200;27.920;2023-01-15T01:40:52;101786.00;;;12.61;46.29
6942;BME280;3510;43.200;27.920;2023-01-15T01:43:19;101784.47;;;12.35;46.91
6942;BME280;3510;43.200;27.920;2023-01-15T01:45:46;101780.16;;;12.34;47.17
6942;BME280;3510;43.200;27.920;2023-01-15T01:48:13;101792.19;;;10.88;50.37
6942;BME280;3510;43.200;27.920;2023-01-15T01:50:42;101794.06;;;10.73;50.65
6942;BME280;3510;43.200;27.920;2023-01-15T01:53:10;101782.72;;;11.37;49.04
6942;BME280;3510;43.200;27.920;2023-01-15T01:55:38;101786.00;;;11.36;49.42
6942;BME280;3510;43.200;27.920;2023-01-15T01:58:07;101781.81;;;10.85;50.05
6942;BME280;3510;43.200;27.920;2023-01-15T02:00:35;101791.41;;;10.05;51.98
6942;BME280;3510;43.200;27.920;2023-01-15T02:03:04;101782.72;;;10.94;50.31
6942;BME280;3510;43.200;27.920;2023-01-15T02:05:32;101788.03;;;10.97;50.23
6942;BME280;3510;43.200;27.920;2023-01-15T02:07:59;101792.00;;;10.78;50.60
6942;BME280;3510;43.200;27.920;2023-01-15T02:10:26;101798.59;;;10.60;51.23
6942;BME280;3510;43.200;27.920;2023-01-15T02:12:54;101793.09;;;11.14;49.89
6942;BME280;3510;43.200;27.920;2023-01-15T02:15:25;101792.34;;;11.59;48.99
6942;BME280;3510;43.200;27.920;2023-01-15T02:17:54;101782.84;;;11.04;49.96
6942;BME280;3510;43.200;27.920;2023-01-15T02:20:27;101777.38;;;11.34;49.46
6942;BME280;3510;43.200;27.920;2023-01-15T02:23:06;101771.31;;;11.15;49.84
6942;BME280;3510;43.200;27.920;2023-01-15T02:25:40;101783.56;;;10.69;51.42
6942;BME280;3510;43.200;27.920;2023-01-15T02:28:14;101777.06;;;10.88;51.07
6942;BME280;3510;43.200;27.920;2023-01-15T02:30:43;101782.28;;;11.15;50.09
6942;BME280;3510;43.200;27.920;2023-01-15T02:33:13;101780.47;;;10.88;50.54
6942;BME280;3510;43.200;27.920;2023-01-15T02:35:42;101779.31;;;11.72;48.75
6942;BME280;3510;43.200;27.920;2023-01-15T02:38:10;101771.22;;;12.47;47.47
6942;BME280;3510;43.200;27.920;2023-01-15T02:40:38;101774.56;;;12.28;47.09
6942;BME280;3510;43.200;27.920;2023-01-15T02:43:07;101771.75;;;11.54;48.95
6942;BME280;3510;43.200;27.920;2023-01-15T02:45:38;101766.03;;;12.64;46.66
6942;BME280;3510;43.200;27.920;2023-01-15T02:48:07;101766.56;;;12.79;46.27
6942;BME280;3510;43.200;27.920;2023-01-15T02:50:37;101770.88;;;12.80;45.88
6942;BME280;3510;43.200;27.920;2023-01-15T02:53:06;101773.22;;;12.87;46.19
6942;BME280;3510;43.200;27.920;2023-01-15T02:55:34;101782.88;;;12.82;46.04
6942;BME280;3510;43.200;27.920;2023-01-15T02:58:03;101780.34;;;11.65;47.89
6942;BME280;3510;43.200;27.920;2023-01-15T03:00:32;101783.31;;;12.23;46.54
6942;BME280;3510;43.200;27.920;2023-01-15T03:03:05;101780.91;;;11.71;47.11
6942;BME280;3510;43.200;27.920;2023-01-15T03:05:34;101777.50;;;11.88;46.78
6942;BME280;3510;43.200;27.920;2023-01-15T03:08:02;101771.41;;;10.82;49.36
6942;BME280;3510;43.200;27.920;2023-01-15T03:10:31;101765.06;;;11.72;47.23
6942;BME280;3510;43.200;27.920;2023-01-15T03:13:02;101766.41;;;11.34;48.16
6942;BME280;3510;43.200;27.920;2023-01-15T03:15:35;101767.03;;;11.31;48.38
6942;BME280;3510;43.200;27.920;2023-01-15T03:18:23;101765.69;;;11.44;47.91
6942;BME280;3510;43.200;27.920;2023-01-15T03:20:53;101755.16;;;10.87;49.30
6942;BME280;3510;43.200;27.920;2023-01-15T03:23:22;101757.25;;;11.26;48.64
6942;BME280;3510;43.200;27.920;2023-01-15T03:25:49;101758.88;;;11.34;47.65
6942;BME280;3510;43.200;27.920;2023-01-15T03:28:17;101764.66;;;11.24;48.45
6942;BME280;3510;43.200;27.920;2023-01-15T03:30:45;101760.50;;;11.42;47.76
6942;BME280;3510;43.200;27.920;2023-01-15T03:33:12;101767.91;;;11.41;47.97
6942;BME280;3510;43.200;27.920;2023-01-15T03:35:45;101773.34;;;11.80;47.32
6942;BME280;3510;43.200;27.920;2023-01-15T03:38:12;101764.47;;;12.83;44.85
6942;BME280;3510;43.200;27.920;2023-01-15T03:40:41;101771.88;;;12.35;45.92
6942;BME280;3510;43.200;27.920;2023-01-15T03:43:13;101764.31;;;11.91;46.89
6942;BME280;3510;43.200;27.920;2023-01-15T03:45:59;101757.25;;;12.42;45.94
6942;BME280;3510;43.200;27.920;2023-01-15T03:48:30;101760.38;;;12.11;46.58
6942;BME280;3510;43.200;27.920;2023-01-15T03:51:02;101761.63;;;11.89;47.00
6942;BME280;3510;43.200;27.920;2023-01-15T03:53:32;101765.97;;;11.03;48.38
6942;BME280;3510;43.200;27.920;2023-01-15T03:56:00;101766.84;;;11.65;47.26
6942;BME280;3510;43.200;27.920;2023-01-15T03:58:31;101771.47;;;11.34;48.06
6942;BME280;3510;43.200;27.920;2023-01-15T04:01:01;101772.94;;;11.58;47.64
6942;BME280;3510;43.200;27.920;2023-01-15T04:03:28;101777.22;;;11.59;47.46
6942;BME280;3510;43.200;27.920;2023-01-15T04:05:56;101777.59;;;12.07;46.63
6942;BME280;3510;43.200;27.920;2023-01-15T04:08:26;101781.56;;;11.43;47.80
6942;BME280;3510;43.200;27.920;2023-01-15T04:10:55;101787.31;;;11.59;47.02
6942;BME280;3510;43.200;27.920;2023-01-15T04:13:22;101789.81;;;11.76;46.99
6942;BME280;3510;43.200;27.920;2023-01-15T04:15:49;101790.59;;;11.84;46.80
6942;BME280;3510;43.200;27.920;2023-01-15T04:18:16;101786.59;;;12.58;45.41
6942;BME280;3510;43.200;27.920;2023-01-15T04:20:43;101786.84;;;11.89;46.16
6942;BME280;3510;43.200;27.920;2023-01-15T04:23:09;101778.75;;;12.19;45.45
6942;BME280;3510;43.200;27.920;2023-01-15T04:25:37;101783.28;;;11.96;46.31
6942;BME280;3510;43.200;27.920;2023-01-15T04:28:05;101785.25;;;12.26;45.25
6942;BME280;3510;43.200;27.920;2023-01-15T04:30:32;101781.50;;;11.95;45.67
6942;BME280;3510;43.200;27.920;2023-01-15T04:32:59;101773.19;;;11.96;46.33
6942;BME280;3510;43.200;27.920;2023-01-15T04:35:26;101777.34;;;11.95;46.38
6942;BME280;3510;43.200;27.920;2023-01-15T04:37:53;101775.66;;;12.96;44.26
6942;BME280;3510;43.200;27.920;2023-01-15T04:40:20;101774.78;;;13.14;43.56
6942;BME280;3510;43.200;27.920;2023-01-15T04:43:02;101778.19;;;13.15;43.57
6942;BME280;3510;43.200;27.920;2023-01-15T04:45:46;101765.91;;;12.63;44.51
6942;BME280;3510;43.200;27.920;2023-01-15T04:48:13;101770.00;;;12.79;44.37
6942;BME280;3510;43.200;27.920;2023-01-15T04:50:39;101775.25;;;12.72;44.54
6942;BME280;3510;43.200;27.920;2023-01-15T04:53:06;101780.38;;;12.55;44.75
6942;BME280;3510;43.200;27.920;2023-01-15T04:55:33;101778.28;;;12.23;45.84
6942;BME280;3510;43.200;27.920;2023-01-15T04:58:00;101782.22;;;11.94;46.20
6942;BME280;3510;43.200;27.920;2023-01-15T05:00:28;101788.44;;;12.06;46.57
6942;BME280;3510;43.200;27.920;2023-01-15T05:02:54;101798.22;;;10.81;50.05
6942;BME280;3510;43.200;27.920;2023-01-15T05:05:21;101806.53;;;10.89;50.21
6942;BME280;3510;43.200;27.920;2023-01-15T05:07:48;101806.22;;;10.77;50.71
6942;BME280;3510;43.200;27.920;2023-01-15T05:10:14;101808.44;;;10.74;50.93
6942;BME280;3510;43.200;27.920;2023-01-15T05:12:41;101777.91;;;10.71;50.96
6942;BME280;3510;43.200;27.920;2023-01-15T05:15:08;101810.38;;;10.85;50.57
6942;BME280;3510;43.200;27.920;2023-01-15T05:17:36;101814.34;;;10.66;51.56
6942;BME280;3510;43.200;27.920;2023-01-15T05:20:03;101812.72;;;10.33;52.06
6942;BME280;3510;43.200;27.920;2023-01-15T05:22:30;101826.28;;;10.51;51.96
6942;BME280;3510;43.200;27.920;2023-01-15T05:24:57;101817.06;;;10.85;51.14
6942;BME280;3510;43.200;27.920;2023-01-15T05:27:23;101822.97;;;10.85;50.91
6942;BME280;3510;43.200;27.920;2023-01-15T05:29:50;101834.16;;;10.63;51.47
6942;BME280;3510;43.200;27.920;2023-01-15T05:32:17;101825.69;;;10.05;52.00
6942;BME280;3510;43.200;27.920;2023-01-15T05:34:45;101822.47;;;9.81;52.73
6942;BME280;3510;43.200;27.920;2023-01-15T05:37:11;101825.69;;;10.05;51.86
6942;BME280;3510;43.200;27.920;2023-01-15T05:39:38;101825.69;;;10.05;51.64
6942;BME280;3510;43.200;27.920;2023-01-15T05:42:05;101832.78;;;9.76;52.04
6942;BME280;3510;43.200;27.920;2023-01-15T05:44:32;101829.09;;;9.40;53.22
6942;BME280;3510;43.200;27.920;2023-01-15T05:46:59;101822.22;;;9.87;52.14
6942;BME280;3510;43.200;27.920;2023-01-15T05:49:30;101823.59;;;10.01;51.93
6942;BME280;3510;43.200;27.920;2023-01-15T05:51:58;101828.69;;;9.44;53.29
6942;BME280;3510;43.200;27.920;2023-01-15T05:54:26;101825.25;;;9.60;53.31
6942;BME280;3510;43.200;27.920;2023-01-15T05:56:53;101828.09;;;9.63;53.11
6942;BME280;3510;43.200;27.920;2023-01-15T05:59:21;101823.84;;;9.70;52.81
6942;BME280;3510;43.200;27.920;2023-01-15T06:01:48;101826.09;;;10.16;52.23
6942;BME280;3510;43.200;27.920;2023-01-15T06:04:15;101829.88;;;10.62;50.67
6942;BME280;3510;43.200;27.920;2023-01-15T06:06:45;101829.47;;;10.75;50.22
6942;BME280;3510;43.200;27.920;2023-01-15T06:09:13;101824.22;;;11.15;49.03
6942;BME280;3510;43.200;27.920;2023-01-15T06:11:40;101836.72;;;10.72;50.34
6942;BME280;3510;43.200;27.920;2023-01-15T06:14:07;101836.16;;;10.41;51.14
6942;BME280;3510;43.200;27.920;2023-01-15T06:16:34;101830.06;;;10.14;52.08
6942;BME280;3510;43.200;27.920;2023-01-15T06:19:01;101838.78;;;9.93;52.48
6942;BME280;3510;43.200;27.920;2023-01-15T06:21:29;101839.06;;;10.28;51.89
6942;BME280;3510;43.200;27.920;2023-01-15T06:23:55;101838.06;;;10.35;51.35
6942;BME280;3510;43.200;27.920;2023-01-15T06:26:24;101837.06;;;10.83;49.92
6942;BME280;3510;43.200;27.920;2023-01-15T06:28:51;101834.03;;;10.70;50.68
6942;BME280;3510;43.200;27.920;2023-01-15T06:31:18;101836.63;;;10.21;51.59
6942;BME280;3510;43.200;27.920;2023-01-15T06:33:45;101832.97;;;10.26;51.38
6942;BME280;3510;43.200;27.920;2023-01-15T06:36:13;101828.38;;;10.55;51.29
6942;BME280;3510;43.200;27.920;2023-01-15T06:38:40;101831.44;;;10.44;51.50
6942;BME280;3510;43.200;27.920;2023-01-15T06:41:09;101827.59;;;10.48;51.27
6942;BME280;3510;43.200;27.920;2023-01-15T06:43:52;101832.13;;;10.10;52.29
6942;BME280;3510;43.200;27.920;2023-01-15T06:46:42;101826.63;;;10.30;51.74
6942;BME280;3510;43.200;27.920;2023-01-15T06:49:26;101821.66;;;10.89;50.44
6942;BME280;3510;43.200;27.920;2023-01-15T06:51:53;101828.63;;;10.83;50.52
6942;BME280;3510;43.200;27.920;2023-01-15T06:54:20;101825.97;;;10.48;50.96
6942;BME280;3510;43.200;27.920;2023-01-15T06:56:47;101822.94;;;10.68;50.63
6942;BME280;3510;43.200;27.920;2023-01-15T06:59:15;101822.97;;;10.77;50.82
6942;BME280;3510;43.200;27.920;2023-01-15T07:01:42;101822.91;;;11.27;49.74
6942;BME280;3510;43.200;27.920;2023-01-15T07:04:08;101814.00;;;11.22;49.39
6942;BME280;3510;43.200;27.920;2023-01-15T07:06:35;101826.19;;;11.61;48.58
6942;BME280;3510;43.200;27.920;2023-01-15T07:09:02;101830.75;;;11.30;48.65
6942;BME280;3510;43.200;27.920;2023-01-15T07:11:29;101832.06;;;12.14;47.54
6942;BME280;3510;43.200;27.920;2023-01-15T07:13:56;101829.69;;;12.51;46.68
6942;BME280;3510;43.200;27.920;2023-01-15T07:16:32;101818.91;;;12.99;45.96
6942;BME280;3510;43.200;27.920;2023-01-15T07:18:59;101835.34;;;12.49;45.59
6942;BME280;3510;43.200;27.920;2023-01-15T07:21:26;101824.09;;;13.00;45.36
6942;BME280;3510;43.200;27.920;2023-01-15T07:23:53;101829.84;;;13.36;44.30
6942;BME280;3510;43.200;27.920;2023-01-15T07:26:20;101825.50;;;13.35;44.29
6942;BME280;3510;43.200;27.920;2023-01-15T07:28:46;101828.63;;;13.13;44.87
6942;BME280;3510;43.200;27.920;2023-01-15T07:31:13;101819.66;;;12.34;46.24
6942;BME280;3510;43.200;27.920;2023-01-15T07:33:41;101824.06;;;12.54;45.88
6942;BME280;3510;43.200;27.920;2023-01-15T07:36:08;101822.56;;;12.83;45.95
6942;BME280;3510;43.200;27.920;2023-01-15T07:38:35;101819.81;;;13.18;44.90
6942;BME280;3510;43.200;27.920;2023-01-15T07:41:01;101824.34;;;12.57;46.11
6942;BME280;3510;43.200;27.920;2023-01-15T07:43:46;101825.50;;;13.35;44.58
6942;BME280;3510;43.200;27.920;2023-01-15T07:46:30;101829.97;;;12.91;45.53
6942;BME280;3510;43.200;27.920;2023-01-15T07:49:15;101824.09;;;13.47;44.12
6942;BME280;3510;43.200;27.920;2023-01-15T07:52:00;101820.09;;;13.59;44.06
6942;BME280;3510;43.200;27.920;2023-01-15T07:54:26;101826.44;;;11.90;47.11
6942;BME280;3510;43.200;27.920;2023-01-15T07:56:53;101821.44;;;12.99;45.32
6942;BME280;3510;43.200;27.920;2023-01-15T07:59:21;101827.44;;;13.85;43.70
6942;BME280;3510;43.200;27.920;2023-01-15T08:01:48;101827.56;;;13.87;43.08
6942;BME280;3510;43.200;27.920;2023-01-15T08:04:16;101829.66;;;13.53;43.78
6942;BME280;3510;43.200;27.920;2023-01-15T08:06:43;101826.44;;;13.83;43.69
6942;BME280;3510;43.200;27.920;2023-01-15T08:09:10;101833.84;;;14.40;42.06
6942;BME280;3510;43.200;27.920;2023-01-15T08:11:36;101833.03;;;14.60;41.62
6942;BME280;3510;43.200;27.920;2023-01-15T08:14:20;101828.38;;;13.96;42.55
6942;BME280;3510;43.200;27.920;2023-01-15T08:17:04;101827.88;;;13.71;43.46
6942;BME280;3510;43.200;27.920;2023-01-15T08:19:33;101820.50;;;15.43;40.12
6942;BME280;3510;43.200;27.920;2023-01-15T08:22:00;101819.84;;;15.45;39.77
6942;BME280;3510;43.200;27.920;2023-01-15T08:24:27;101820.50;;;15.43;40.16
6942;BME280;3510;43.200;27.920;2023-01-15T08:26:53;101827.72;;;14.27;41.78
6942;BME280;3510;43.200;27.920;2023-01-15T08:29:20;101827.09;;;14.59;41.20
6942;BME280;3510;43.200;27.920;2023-01-15T08:31:47;101819.78;;;15.13;40.47
6942;BME280;3510;43.200;27.920;2023-01-15T08:34:14;101815.84;;;15.17;40.10
6942;BME280;3510;43.200;27.920;2023-01-15T08:36:42;101828.31;;;15.56;39.63
6942;BME280;3510;43.200;27.920;2023-01-15T08:39:09;101821.44;;;16.08;39.00
6942;BME280;3510;43.200;27.920;2023-01-15T08:41:35;101820.09;;;15.69;39.64
6942;BME280;3510;43.200;27.920;2023-01-15T08:44:02;101821.38;;;15.96;38.93
6942;BME280;3510;43.200;27.920;2023-01-15T08:46:29;101815.00;;;16.23;38.19
6942;BME280;3510;43.200;27.920;2023-01-15T08:48:56;101817.78;;;16.26;38.69
6942;BME280;3510;43.200;27.920;2023-01-15T08:51:23;101819.09;;;16.21;38.87
6942;BME280;3510;43.200;27.920;2023-01-15T08:53:52;101818.84;;;14.72;41.57
6942;BME280;3510;43.200;27.920;2023-01-15T08:56:19;101813.47;;;16.03;39.89
6942;BME280;3510;43.200;27.920;2023-01-15T08:58:45;101815.34;;;15.63;40.17
6942;BME280;3510;43.200;27.920;2023-01-15T09:01:12;101817.53;;;16.01;39.03
6942;BME280;3510;43.200;27.920;2023-01-15T09:03:41;101796.19;;;16.09;39.22
6942;BME280;3510;43.200;27.920;2023-01-15T09:06:08;101751.22;;;15.44;40.57
6942;BME280;3510;43.200;27.920;2023-01-15T09:08:36;101765.03;;;15.90;40.15
6942;BME280;3510;43.200;27.920;2023-01-15T09:11:06;101802.47;;;16.58;39.50
6942;BME280;3510;43.200;27.920;2023-01-15T09:13:37;101787.88;;;16.12;39.57
6942;BME280;3510;43.200;27.920;2023-01-15T09:16:05;101801.94;;;15.96;39.97
6942;BME280;3510;43.200;27.920;2023-01-15T09:18:35;101797.28;;;16.35;39.16
6942;BME280;3510;43.200;27.920;2023-01-15T09:21:04;101731.38;;;15.70;39.95
6942;BME280;3510;43.200;27.920;2023-01-15T09:23:31;101783.13;;;14.79;42.73
6942;BME280;3510;43.200;27.920;2023-01-15T09:25:59;101757.50;;;15.69;40.37
6942;BME280;3510;43.200;27.920;2023-01-15T09:28:28;101786.66;;;16.29;39.10
6942;BME280;3510;43.200;27.920;2023-01-15T09:30:55;101764.78;;;16.09;39.58
6942;BME280;3510;43.200;27.920;2023-01-15T09:33:22;101736.88;;;14.71;41.76
6942;BME280;3510;43.200;27.920;2023-01-15T09:35:50;101779.94;;;15.75;40.62
6942;BME280;3510;43.200;27.920;2023-01-15T09:38:19;101773.63;;;16.24;39.21
6942;BME280;3510;43.200;27.920;2023-01-15T09:40:49;101760.59;;;15.65;39.82
6942;BME280;3510;43.200;27.920;2023-01-15T09:43:28;101732.59;;;15.76;39.74
6942;BME280;3510;43.200;27.920;2023-01-15T09:46:03;101738.50;;;15.54;40.48
6942;BME280;3510;43.200;27.920;2023-01-15T09:48:48;101768.59;;;16.36;39.34
6942;BME280;3510;43.200;27.920;2023-01-15T09:51:25;101755.44;;;15.76;39.85
6942;BME280;3510;43.200;27.920;2023-01-15T09:54:16;101759.91;;;16.56;38.85
6942;BME280;3510;43.200;27.920;2023-01-15T09:56:45;101763.44;;;15.80;40.29
6942;BME280;3510;43.200;27.920;2023-01-15T09:59:21;101746.91;;;16.07;39.63
6942;BME280;3510;43.200;27.920;2023-01-15T10:01:50;101751.41;;;16.55;39.00
6942;BME280;3510;43.200;27.920;2023-01-15T10:04:31;101745.78;;;16.04;39.87
6942;BME280;3510;43.200;27.920;2023-01-15T10:07:05;101709.63;;;14.89;41.71
6942;BME280;3510;43.200;27.920;2023-01-15T10:09:38;101701.47;;;15.24;41.88
6942;BME280;3510;43.200;27.920;2023-01-15T10:12:12;101692.16;;;16.44;39.41
6942;BME280;3510;43.200;27.920;2023-01-15T10:15:09;101740.53;;;15.58;41.10
6942;BME280;3510;43.200;27.920;2023-01-15T10:17:41;101708.72;;;15.84;40.40
6942;BME280;3510;43.200;27.920;2023-01-15T10:20:13;101727.06;;;16.13;40.21
6942;BME280;3510;43.200;27.920;2023-01-15T10:23:01;101703.78;;;16.19;39.94
6942;BME280;3510;43.200;27.920;2023-01-15T10:25:40;101680.97;;;16.31;39.66
6942;BME280;3510;43.200;27.920;2023-01-15T10:28:17;101687.75;;;15.86;40.38
6942;BME280;3510;43.200;27.920;2023-01-15T10:30:50;101714.34;;;15.37;41.41
6942;BME280;3510;43.200;27.920;2023-01-15T10:33:30;101702.13;;;16.53;38.57
6942;BME280;3510;43.200;27.920;2023-01-15T10:36:02;101703.53;;;16.16;39.71
6942;BME280;3510;43.200;27.920;2023-01-15T10:38:36;101627.47;;;15.40;41.13
6942;BME280;3510;43.200;27.920;2023-01-15T10:41:18;101673.78;;;15.59;41.42
6942;BME280;3510;43.200;27.920;2023-01-15T10:43:54;101693.28;;;15.70;41.34
6942;BME280;3510;43.200;27.920;2023-01-15T10:46:28;101690.13;;;15.73;41.21
6942;BME280;3510;43.200;27.920;2023-01-15T10:49:01;101633.72;;;16.33;39.52
6942;BME280;3510;43.200;27.920;2023-01-15T10:51:36;101680.38;;;16.23;39.92
6942;BME280;3510;43.200;27.920;2023-01-15T10:54:07;101676.94;;;16.68;39.45
6942;BME280;3510;43.200;27.920;2023-01-15T10:56:41;101640.84;;;16.15;40.08
6942;BME280;3510;43.200;27.920;2023-01-15T10:59:14;101603.50;;;15.58;40.71
6942;BME280;3510;43.200;27.920;2023-01-15T11:01:44;101639.66;;;15.88;40.47
6942;BME280;3510;43.200;27.920;2023-01-15T11:04:13;101673.09;;;15.72;41.15
6942;BME280;3510;43.200;27.920;2023-01-15T11:06:40;101679.88;;;16.84;39.69
6942;BME280;3510;43.200;27.920;2023-01-15T11:09:14;101643.78;;;17.85;37.43
6942;BME280;3510;43.200;27.920;2023-01-15T11:11:44;101600.59;;;15.97;39.52
6942;BME280;3510;43.200;27.920;2023-01-15T11:14:34;101664.59;;;15.93;40.34
6942;BME280;3510;43.200;27.920;2023-01-15T11:17:20;101671.28;;;16.03;40.57
6942;BME280;3510;43.200;27.920;2023-01-15T11:20:13;101663.03;;;15.19;42.54
6942;BME280;3510;43.200;27.920;2023-01-15T11:22:42;101632.84;;;15.22;42.34
6942;BME280;3510;43.200;27.920;2023-01-15T11:25:09;101666.94;;;15.68;42.11
6942;BME280;3510;43.200;27.920;2023-01-15T11:27:38;101630.09;;;15.63;41.50
6942;BME280;3510;43.200;27.920;2023-01-15T11:30:23;101614.56;;;15.27;42.47
6942;BME280;3510;43.200;27.920;2023-01-15T11:32:56;101651.19;;;14.98;43.42
6942;BME280;3510;43.200;27.920;2023-01-15T11:35:23;101649.47;;;15.51;42.36
6942;BME280;3510;43.200;27.920;2023-01-15T11:38:01;101648.91;;;15.87;41.41
6942;BME280;3510;43.200;27.920;2023-01-15T11:40:28;101618.41;;;15.21;42.33
6942;BME280;3510;43.200;27.920;2023-01-15T11:42:55;101619.19;;;15.64;41.92
6942;BME280;3510;43.200;27.920;2023-01-15T11:45:46;101604.47;;;17.08;39.02
6942;BME280;3510;43.200;27.920;2023-01-15T11:48:42;101614.69;;;16.28;40.19
6942;BME280;3510;43.200;27.920;2023-01-15T11:51:27;101595.41;;;17.00;38.85
6942;BME280;3510;43.200;27.920;2023-01-15T11:53:59;101627.44;;;16.63;39.62
6942;BME280;3510;43.200;27.920;2023-01-15T11:56:29;101619.78;;;15.94;40.45
6942;BME280;3510;43.200;27.920;2023-01-15T11:58:57;101640.25;;;16.53;40.23
6942;BME280;3510;43.200;27.920;2023-01-15T12:01:24;101637.00;;;16.89;39.24
6942;BME280;3510;43.200;27.920;2023-01-15T12:03:55;101635.66;;;15.47;41.63
6942;BME280;3510;43.200;27.920;2023-01-15T12:06:24;101632.28;;;15.05;43.16
6942;BME280;3510;43.200;27.920;2023-01-15T12:08:59;101636.13;;;15.32;42.70
6942;BME280;3510;43.200;27.920;2023-01-15T12:11:39;101608.94;;;15.41;41.97
6942;BME280;3510;43.200;27.920;2023-01-15T12:14:40;101626.94;;;14.69;43.40
6942;BME280;3510;43.200;27.920;2023-01-15T12:17:27;101603.50;;;15.58;41.79
6942;BME280;3510;43.200;27.920;2023-01-15T12:20:10;101607.63;;;15.46;42.09
6942;BME280;3510;43.200;27.920;2023-01-15T12:22:59;101596.09;;;15.71;41.42
6942;BME280;3510;43.200;27.920;2023-01-15T12:25:40;101614.72;;;16.51;40.32
6942;BME280;3510;43.200;27.920;2023-01-15T12:28:13;101621.66;;;16.30;40.65
6942;BME280;3510;43.200;27.920;2023-01-15T12:30:48;101619.94;;;15.19;42.36
6942;BME280;3510;43.200;27.920;2023-01-15T12:33:31;101605.72;;;16.09;40.83
6942;BME280;3510;43.200;27.920;2023-01-15T12:36:07;101621.72;;;16.65;40.50
6942;BME280;3510;43.200;27.920;2023-01-15T12:38:46;101621.59;;;16.64;40.19
6942;BME280;3510;43.200;27.920;2023-01-15T12:41:17;101624.59;;;16.58;40.39
6942;BME280;3510;43.200;27.920;2023-01-15T12:43:51;101619.84;;;16.06;41.44
6942;BME280;3510;43.200;27.920;2023-01-15T12:46:40;101619.88;;;16.17;41.11
6942;BME280;3510;43.200;27.920;2023-01-15T12:49:18;101579.09;;;14.94;42.19
6942;BME280;3510;43.200;27.920;2023-01-15T12:51:56;101601.97;;;16.28;40.63
6942;BME280;3510;43.200;27.920;2023-01-15T12:54:30;101599.34;;;15.27;42.71
6942;BME280;3510;43.200;27.920;2023-01-15T12:57:03;101614.25;;;15.44;42.60
6942;BME280;3510;43.200;27.920;2023-01-15T12:59:35;101615.38;;;15.15;43.18
6942;BME280;3510;43.200;27.920;2023-01-15T13:02:13;101528.91;;;14.48;43.66
6942;BME280;3510;43.200;27.920;2023-01-15T13:04:48;101583.19;;;15.14;43.08
6942;BME280;3510;43.200;27.920;2023-01-15T13:07:23;101616.19;;;15.04;43.58
6942;BME280;3510;43.200;27.920;2023-01-15T13:09:55;101583.16;;;15.24;42.85
6942;BME280;3510;43.200;27.920;2023-01-15T13:12:27;101581.66;;;15.82;41.88
6942;BME280;3510;43.200;27.920;2023-01-15T13:14:55;101585.81;;;16.04;41.54
6942;BME280;3510;43.200;27.920;2023-01-15T13:17:30;101602.91;;;15.94;41.81
6942;BME280;3510;43.200;27.920;2023-01-15T13:20:20;101600.44;;;15.40;42.39